createdAt,value
2023-01-03T00:02:38.886Z,4.20
2023-01-03T00:05:47.631Z,4.20
2023-01-03T00:08:59.813Z,4.30
2023-01-03T00:12:31.098Z,4.30
2023-01-03T00:15:42.411Z,4.40
2023-01-03T00:18:50.817Z,4.48
2023-01-03T00:22:00.092Z,4.50
2023-01-03T00:25:09.666Z,4.60
2023-01-03T00:28:18.587Z,4.64
2023-01-03T00:31:28.360Z,4.70
2023-01-03T00:34:36.748Z,4.80
2023-01-03T00:37:45.210Z,4.80
2023-01-03T00:40:55.372Z,4.80
2023-01-03T00:44:03.983Z,4.90
2023-01-03T00:47:13.135Z,4.90
2023-01-03T00:50:21.518Z,4.98
2023-01-03T00:53:29.769Z,5.00
2023-01-03T00:56:41.107Z,5.00
2023-01-03T00:59:49.479Z,5.00
2023-01-03T01:02:59.605Z,5.04
2023-01-03T01:06:19.256Z,5.10
2023-01-03T01:09:30.164Z,5.10
2023-01-03T01:12:38.270Z,5.10
2023-01-03T01:15:48.982Z,5.10
2023-01-03T01:19:00.183Z,5.10
2023-01-03T01:22:10.723Z,5.10
2023-01-03T01:25:18.963Z,5.10
2023-01-03T01:28:27.515Z,5.10
2023-01-03T01:31:39.994Z,5.10
2023-01-03T01:34:48.062Z,5.10
2023-01-03T01:37:58.623Z,5.10
2023-01-03T01:41:08.047Z,5.10
2023-01-03T01:44:52.489Z,5.10
2023-01-03T01:48:07.190Z,5.10
2023-01-03T01:51:16.818Z,5.10
2023-01-03T01:54:25.670Z,5.10
2023-01-03T01:57:34.970Z,5.00
2023-01-03T02:00:45.171Z,5.00
2023-01-03T02:04:01.606Z,5.00
2023-01-03T02:07:10.992Z,5.00
2023-01-03T02:10:23.069Z,5.00
2023-01-03T02:13:39.912Z,5.00
2023-01-03T02:17:05.544Z,5.00
2023-01-03T02:20:44.380Z,5.00
2023-01-03T02:24:25.931Z,5.00
2023-01-03T02:28:22.081Z,5.00
2023-01-03T02:31:36.951Z,5.00
2023-01-03T02:34:56.942Z,5.00
2023-01-03T02:38:14.507Z,5.00
2023-01-03T02:41:37.333Z,5.00
2023-01-03T02:44:59.769Z,5.04
2023-01-03T02:48:13.936Z,5.02
2023-01-03T02:51:27.649Z,5.06
2023-01-03T02:54:43.388Z,5.10
2023-01-03T02:57:58.568Z,5.10
2023-01-03T03:01:09.995Z,5.10
2023-01-03T03:04:19.210Z,5.10
2023-01-03T03:07:33.266Z,5.10
2023-01-03T03:11:01.680Z,5.10
2023-01-03T03:14:17.934Z,5.10
2023-01-03T03:17:32.231Z,5.10
2023-01-03T03:20:57.908Z,5.10
2023-01-03T03:24:32.432Z,5.10
2023-01-03T03:28:03.860Z,5.10
2023-01-03T03:31:18.720Z,5.12
2023-01-03T03:34:31.182Z,5.16
2023-01-03T03:37:45.607Z,5.14
2023-01-03T03:41:32.741Z,5.16
2023-01-03T03:45:05.115Z,5.20
2023-01-03T03:48:23.898Z,5.20
2023-01-03T03:51:37.351Z,5.20
2023-01-03T03:54:51.576Z,5.20
2023-01-03T03:58:07.341Z,5.20
2023-01-03T04:01:19.731Z,5.20
2023-01-03T04:04:34.556Z,5.20
2023-01-03T04:07:43.024Z,5.20
2023-01-03T04:10:52.040Z,5.26
2023-01-03T04:14:00.408Z,5.30
2023-01-03T04:17:08.995Z,5.30
2023-01-03T04:20:18.993Z,5.30
2023-01-03T04:23:27.570Z,5.32
2023-01-03T04:26:35.905Z,5.40
2023-01-03T04:29:44.018Z,5.40
2023-01-03T04:32:51.955Z,5.40
2023-01-03T04:36:00.429Z,5.40
2023-01-03T04:39:11.371Z,5.40
2023-01-03T04:42:38.269Z,5.40
2023-01-03T04:45:49.078Z,5.40
2023-01-03T04:48:58.797Z,5.40
2023-01-03T04:52:07.089Z,5.40
2023-01-03T04:55:15.593Z,5.48
2023-01-03T04:58:24.223Z,5.50
2023-01-03T05:01:33.085Z,5.50
2023-01-03T05:04:41.112Z,5.50
2023-01-03T05:07:49.418Z,5.54
2023-01-03T05:10:57.575Z,5.60
2023-01-03T05:14:13.984Z,5.60
2023-01-03T05:17:23.028Z,5.60
2023-01-03T05:20:48.732Z,5.70
2023-01-03T05:24:14.470Z,5.80
2023-01-03T05:27:22.995Z,5.90
2023-01-03T05:30:31.117Z,5.80
2023-01-03T05:33:41.062Z,5.60
2023-01-03T05:36:49.343Z,5.50
2023-01-03T05:39:57.326Z,5.40
2023-01-03T05:43:05.358Z,5.22
2023-01-03T05:46:13.470Z,5.14
2023-01-03T05:49:21.479Z,5.04
2023-01-03T05:52:29.691Z,5.00
2023-01-03T05:55:39.294Z,4.90
2023-01-03T05:58:49.681Z,4.90
2023-01-03T06:01:57.885Z,4.80
2023-01-03T06:05:07.321Z,4.70
2023-01-03T06:08:15.187Z,4.70
2023-01-03T06:11:23.919Z,4.70
2023-01-03T06:14:31.690Z,4.60
2023-01-03T06:17:58.255Z,4.60
2023-01-03T06:21:07.595Z,4.60
2023-01-03T06:24:15.931Z,4.60
2023-01-03T06:27:23.588Z,4.60
2023-01-03T06:30:31.567Z,4.60
2023-01-03T06:33:40.016Z,4.60
2023-01-03T06:36:48.689Z,4.66
2023-01-03T06:39:56.601Z,4.70
2023-01-03T06:43:05.472Z,4.70
2023-01-03T06:46:33.378Z,4.70
2023-01-03T06:50:01.240Z,4.70
2023-01-03T06:53:15.401Z,4.70
2023-01-03T06:56:26.406Z,4.70
2023-01-03T06:59:34.480Z,4.70
2023-01-03T07:02:43.738Z,4.70
2023-01-03T07:05:50.067Z,4.70
2023-01-03T07:08:58.406Z,4.70
2023-01-03T07:12:22.992Z,4.78
2023-01-03T07:15:30.981Z,4.80
2023-01-03T07:18:39.006Z,4.80
2023-01-03T07:21:48.856Z,4.80
2023-01-03T07:24:55.101Z,4.80
2023-01-03T07:28:07.281Z,4.80
2023-01-03T07:31:16.905Z,4.80
2023-01-03T07:34:25.738Z,4.88
2023-01-03T07:37:33.916Z,4.90
2023-01-03T07:40:41.832Z,4.90
2023-01-03T07:43:52.267Z,4.90
2023-01-03T07:47:00.577Z,4.92
2023-01-03T07:50:10.924Z,5.00
2023-01-03T07:53:19.321Z,5.00
2023-01-03T07:56:27.511Z,5.00
2023-01-03T07:59:35.891Z,5.00
2023-01-03T08:02:43.919Z,5.00
2023-01-03T08:05:51.963Z,5.10
2023-01-03T08:09:17.941Z,5.10
2023-01-03T08:12:40.419Z,5.10
2023-01-03T08:15:52.255Z,5.14
2023-01-03T08:19:00.649Z,5.20
2023-01-03T08:22:09.025Z,5.20
2023-01-03T08:25:17.915Z,5.20
2023-01-03T08:28:25.818Z,5.26
2023-01-03T08:31:40.110Z,5.30
2023-01-03T08:34:49.090Z,5.30
2023-01-03T08:37:57.302Z,5.32
2023-01-03T08:41:11.032Z,5.40
2023-01-03T08:44:19.744Z,5.40
2023-01-03T08:47:28.309Z,5.46
2023-01-03T08:50:37.731Z,5.50
2023-01-03T08:53:45.758Z,5.50
2023-01-03T08:56:54.176Z,5.56
2023-01-03T09:00:02.916Z,5.60
2023-01-03T09:03:11.334Z,5.60
2023-01-03T09:06:21.734Z,5.60
2023-01-03T09:09:29.954Z,5.60
2023-01-03T09:12:38.867Z,5.60
2023-01-03T09:15:49.753Z,5.70
2023-01-03T09:18:58.031Z,5.70
2023-01-03T09:22:06.170Z,5.70
2023-01-03T09:25:14.687Z,5.78
2023-01-03T09:28:23.193Z,5.80
2023-01-03T09:31:35.001Z,5.80
2023-01-03T09:34:43.781Z,5.84
2023-01-03T09:37:52.972Z,5.90
2023-01-03T09:41:09.183Z,5.90
2023-01-03T09:44:18.286Z,5.90
2023-01-03T09:47:28.384Z,5.90
2023-01-03T09:51:14.207Z,5.90
2023-01-03T09:54:32.661Z,5.90
2023-01-03T09:57:59.131Z,5.90
2023-01-03T10:01:45.839Z,5.94
2023-01-03T10:05:37.884Z,6.00
2023-01-03T10:09:05.907Z,6.00
2023-01-03T10:12:28.382Z,6.00
2023-01-03T10:15:52.815Z,6.00
2023-01-03T10:19:26.540Z,6.00
2023-01-03T10:22:37.443Z,6.00
2023-01-03T10:25:48.407Z,6.06
2023-01-03T10:28:56.925Z,6.10
2023-01-03T10:32:30.356Z,6.10
2023-01-03T10:35:40.512Z,6.10
2023-01-03T10:38:53.322Z,6.02
2023-01-03T10:42:06.601Z,6.00
2023-01-03T10:45:20.131Z,6.02
2023-01-03T10:49:00.264Z,6.02
2023-01-03T10:52:11.597Z,6.00
2023-01-03T10:55:24.225Z,6.00
2023-01-03T10:58:36.716Z,6.00
2023-01-03T11:02:01.652Z,6.04
2023-01-03T11:05:19.488Z,6.10
2023-01-03T11:08:48.836Z,6.10
2023-01-03T11:12:07.372Z,6.10
2023-01-03T11:15:39.059Z,6.12
2023-01-03T11:19:03.690Z,6.20
2023-01-03T11:22:25.218Z,6.20
2023-01-03T11:25:48.999Z,6.20
2023-01-03T11:29:36.090Z,6.20
2023-01-03T11:33:04.312Z,6.16
2023-01-03T11:36:35.700Z,6.10
2023-01-03T11:40:05.176Z,6.04
2023-01-03T11:43:35.398Z,6.00
2023-01-03T11:47:06.990Z,6.00
2023-01-03T11:50:30.677Z,6.10
2023-01-03T11:53:58.159Z,6.10
2023-01-03T11:57:20.947Z,6.10
2023-01-03T12:00:42.612Z,6.10
2023-01-03T12:04:16.877Z,6.06
2023-01-03T12:07:47.398Z,6.06
2023-01-03T12:11:06.216Z,6.00
2023-01-03T12:14:22.502Z,6.00
2023-01-03T12:17:42.936Z,6.04
2023-01-03T12:20:58.574Z,6.02
2023-01-03T12:24:17.996Z,6.00
2023-01-03T12:27:33.640Z,6.02
2023-01-03T12:30:49.992Z,6.00
2023-01-03T12:34:11.435Z,6.00
2023-01-03T12:37:25.937Z,6.10
2023-01-03T12:40:45.021Z,6.10
2023-01-03T12:43:59.977Z,6.10
2023-01-03T12:47:16.169Z,6.10
2023-01-03T12:50:32.061Z,6.10
2023-01-03T12:53:47.411Z,6.10
2023-01-03T12:57:39.901Z,6.12
2023-01-03T13:01:06.091Z,6.14
2023-01-03T13:04:23.896Z,6.20
2023-01-03T13:07:37.966Z,6.18
2023-01-03T13:10:53.749Z,6.20
2023-01-03T13:14:17.074Z,6.20
2023-01-03T13:17:28.687Z,6.20
2023-01-03T13:20:44.929Z,6.20
2023-01-03T13:24:05.161Z,6.20
2023-01-03T13:27:51.369Z,6.20
2023-01-03T13:31:42.426Z,6.20
2023-01-03T13:35:52.864Z,6.20
2023-01-03T13:39:03.212Z,6.20
2023-01-03T13:42:29.067Z,6.20
2023-01-03T13:46:20.273Z,6.16
2023-01-03T13:49:33.084Z,6.10
2023-01-03T13:53:00.172Z,6.10
2023-01-03T13:56:26.815Z,6.10
2023-01-03T13:59:44.124Z,6.10
2023-01-03T14:03:46.061Z,6.10
2023-01-03T14:07:23.540Z,6.18
2023-01-03T14:11:01.706Z,6.18
2023-01-03T14:14:16.901Z,6.20
2023-01-03T14:17:32.011Z,6.20
2023-01-03T14:20:46.752Z,6.20
2023-01-03T14:24:00.240Z,6.20
2023-01-03T14:27:17.549Z,6.20
2023-01-03T14:30:32.405Z,6.20
2023-01-03T14:33:47.296Z,6.20
2023-01-03T14:37:01.095Z,6.20
2023-01-03T14:40:25.916Z,6.20
2023-01-03T14:43:37.062Z,6.20
2023-01-03T14:46:55.576Z,6.20
2023-01-03T14:50:05.653Z,6.20
2023-01-03T14:53:17.019Z,6.20
2023-01-03T14:56:29.627Z,6.20
2023-01-03T14:59:40.671Z,6.20
2023-01-03T15:02:50.596Z,6.20
2023-01-03T15:06:04.116Z,6.20
2023-01-03T15:09:26.469Z,6.20
2023-01-03T15:12:38.261Z,6.20
2023-01-03T15:15:53.831Z,6.20
2023-01-03T15:19:13.854Z,6.20
2023-01-03T15:22:23.496Z,6.20
2023-01-03T15:25:39.489Z,6.20
2023-01-03T15:28:57.185Z,6.20
2023-01-03T15:32:12.391Z,6.20
2023-01-03T15:35:38.256Z,6.20
2023-01-03T15:38:50.758Z,6.20
2023-01-03T15:46:03.157Z,6.20
2023-01-03T15:49:14.708Z,6.20
2023-01-03T15:52:23.665Z,6.20
2023-01-03T15:55:32.177Z,6.16
2023-01-03T15:58:41.355Z,6.16
2023-01-03T16:01:49.895Z,6.10
2023-01-03T16:04:59.458Z,6.10
2023-01-03T16:08:21.826Z,6.10
2023-01-03T16:11:34.457Z,6.10
2023-01-03T16:14:46.747Z,6.10
2023-01-03T16:17:55.671Z,6.12
2023-01-03T16:21:04.191Z,6.10
2023-01-03T16:24:18.812Z,6.10
2023-01-03T16:27:27.747Z,6.16
2023-01-03T16:30:36.053Z,6.18
2023-01-03T16:33:46.947Z,6.18
2023-01-03T16:36:55.994Z,6.20
2023-01-03T16:40:05.804Z,6.20
2023-01-03T16:43:14.692Z,6.20
2023-01-03T16:46:27.073Z,6.20
2023-01-03T16:49:38.171Z,6.20
2023-01-03T16:52:52.618Z,6.20
2023-01-03T16:56:04.883Z,6.20
2023-01-03T16:59:19.859Z,6.24
2023-01-03T17:02:28.121Z,6.30
2023-01-03T17:05:39.076Z,6.30
2023-01-03T17:08:47.539Z,6.32
2023-01-03T17:11:56.506Z,6.40
2023-01-03T17:15:05.472Z,6.40
2023-01-03T17:18:21.132Z,6.40
2023-01-03T17:21:32.162Z,6.40
2023-01-03T17:24:41.122Z,6.40
2023-01-03T17:27:54.493Z,6.40
2023-01-03T17:31:02.347Z,6.40
2023-01-03T17:34:25.576Z,6.42
2023-01-03T17:37:57.772Z,6.40
2023-01-03T17:41:02.875Z,6.44
2023-01-03T17:44:17.298Z,6.40
2023-01-03T17:47:45.307Z,6.40
2023-01-03T17:50:53.458Z,6.40
2023-01-03T17:54:03.074Z,6.40
2023-01-03T17:57:13.968Z,6.40
2023-01-03T18:00:27.560Z,6.40
2023-01-03T18:03:36.229Z,6.40
2023-01-03T18:06:45.066Z,6.40
2023-01-03T18:09:55.589Z,6.40
2023-01-03T18:13:04.454Z,6.40
2023-01-03T18:16:20.487Z,6.40
2023-01-03T18:19:28.676Z,6.40
2023-01-03T18:22:37.228Z,6.40
2023-01-03T18:25:45.678Z,6.40
2023-01-03T18:28:55.241Z,6.40
2023-01-03T18:32:04.120Z,6.40
2023-01-03T18:35:20.800Z,6.40
2023-01-03T18:38:41.553Z,6.40
2023-01-03T18:41:49.599Z,6.40
2023-01-03T18:44:57.650Z,6.40
2023-01-03T18:48:05.963Z,6.40
2023-01-03T18:51:20.140Z,6.40
2023-01-03T18:54:28.144Z,6.40
2023-01-03T18:57:39.463Z,6.40
2023-01-03T19:00:48.394Z,6.40
2023-01-03T19:03:56.791Z,6.40
2023-01-03T19:07:05.724Z,6.40
2023-01-03T19:10:24.675Z,6.40
2023-01-03T19:13:51.661Z,6.40
2023-01-03T19:17:00.454Z,6.40
2023-01-03T19:20:11.073Z,6.40
2023-01-03T19:23:26.843Z,6.40
2023-01-03T19:26:41.258Z,6.40
2023-01-03T19:29:50.750Z,6.40
2023-01-03T19:33:01.013Z,6.40
2023-01-03T19:36:17.812Z,6.40
2023-01-03T19:39:28.739Z,6.40
2023-01-03T19:42:48.809Z,6.38
2023-01-03T19:45:57.136Z,6.32
2023-01-03T19:49:07.267Z,6.30
2023-01-03T19:52:15.710Z,6.30
2023-01-03T19:55:27.653Z,6.30
2023-01-03T19:58:42.194Z,6.30
2023-01-03T20:02:23.256Z,6.30
2023-01-03T20:05:25.897Z,6.30
2023-01-03T20:08:36.781Z,6.26
2023-01-03T20:11:46.432Z,6.20
2023-01-03T20:14:55.057Z,6.20
2023-01-03T20:18:04.572Z,6.20
2023-01-03T20:21:23.442Z,6.20
2023-01-03T20:24:36.279Z,6.14
2023-01-03T20:27:47.083Z,6.10
2023-01-03T20:30:55.442Z,6.10
2023-01-03T20:34:07.039Z,6.10
2023-01-03T20:37:22.439Z,6.08
2023-01-03T20:40:31.449Z,6.04
2023-01-03T20:43:39.463Z,6.00
2023-01-03T20:46:47.635Z,6.00
2023-01-03T20:49:56.193Z,6.00
2023-01-03T20:53:04.637Z,6.00
2023-01-03T20:56:17.032Z,6.00
2023-01-03T20:59:25.846Z,6.00
2023-01-03T21:02:34.587Z,6.00
2023-01-03T21:05:43.802Z,6.00
2023-01-03T21:08:55.455Z,6.00
2023-01-03T21:12:03.431Z,5.94
2023-01-03T21:15:12.750Z,5.92
2023-01-03T21:18:21.305Z,5.90
2023-01-03T21:21:32.561Z,5.90
2023-01-03T21:24:45.189Z,5.90
2023-01-03T21:27:54.912Z,5.90
2023-01-03T21:31:05.557Z,5.90
2023-01-03T21:34:22.290Z,5.86
2023-01-03T21:37:30.288Z,5.80
2023-01-03T21:40:38.205Z,5.80
2023-01-03T21:43:46.507Z,5.80
2023-01-03T21:46:54.759Z,5.70
2023-01-03T21:50:03.173Z,5.70
2023-01-03T21:53:16.176Z,5.60
2023-01-03T21:56:26.754Z,5.60
2023-01-03T21:59:35.551Z,5.60
2023-01-03T22:03:02.108Z,5.54
2023-01-03T22:06:14.659Z,5.50
2023-01-03T22:09:40.291Z,5.40
2023-01-03T22:12:49.925Z,5.40
2023-01-03T22:15:58.904Z,5.40
2023-01-03T22:19:07.163Z,5.36
2023-01-03T22:22:15.518Z,5.30
2023-01-03T22:25:25.233Z,5.30
2023-01-03T22:28:38.760Z,5.30
2023-01-03T22:31:48.367Z,5.30
2023-01-03T22:34:56.996Z,5.30
2023-01-03T22:38:05.435Z,5.22
2023-01-03T22:41:15.578Z,5.20
2023-01-03T22:44:24.008Z,5.20
2023-01-03T22:47:32.378Z,5.20
2023-01-03T22:50:40.544Z,5.10
2023-01-03T22:53:50.019Z,5.10
2023-01-03T22:56:59.733Z,5.10
2023-01-03T23:00:12.379Z,5.10
2023-01-03T23:03:20.543Z,5.02
2023-01-03T23:06:29.438Z,5.00
2023-01-03T23:09:37.460Z,5.00
2023-01-03T23:12:50.063Z,5.00
2023-01-03T23:15:58.000Z,4.94
2023-01-03T23:19:10.144Z,4.90
2023-01-03T23:22:18.664Z,4.90
2023-01-03T23:25:26.541Z,4.80
2023-01-03T23:28:35.057Z,4.80
2023-01-03T23:31:43.487Z,4.70
2023-01-03T23:34:51.641Z,4.70
2023-01-03T23:37:59.461Z,4.70
2023-01-03T23:41:11.991Z,4.70
2023-01-03T23:44:19.775Z,4.70
2023-01-03T23:47:27.611Z,4.60
2023-01-03T23:50:35.446Z,4.60
2023-01-03T23:53:46.766Z,4.52
2023-01-03T23:56:54.953Z,4.50
